<?xml version="1.0" encoding="UTF-8" standalone="no" ?>
<gpx xmlns="http://www.topografix.com/GPX/1/1" xmlns:xsi="http://www.w3.org/2001/XMLSchema-instance" xsi:schemaLocation="http://www.topografix.com/GPX/1/1 http://www.topografix.com/GPX/1/1/gpx.xsd" version="1.1" creator="VisuGPX - https://www.visugpx.com">
  <metadata>
    <name>Base VRTT Gevaudan Lagogne</name>
  </metadata>
  <trk>
    <name><![CDATA[ESI0335 - CIRCUIT DU CHAPEAUROUX]]></name>
    <extensions>
      <line xmlns="http://www.topografix.com/GPX/gpx_style/0/2">
        <color>0011ff</color>
        <width>4</width>
      </line>
    </extensions>
    <trkseg>
      <trkpt lat="44.75331" lon="3.72584">
        <ele>994.86358642578</ele>
        <time>2020-11-02T09:00:34.000Z</time>
      </trkpt>
      <trkpt lat="44.75336" lon="3.72591">
        <ele>995.99139404297</ele>
        <time>2020-11-02T09:00:34.001Z</time>
      </trkpt>
      <trkpt lat="44.75337" lon="3.72605">
        <ele>996.54888916016</ele>
        <time>2020-11-02T09:00:34.004Z</time>
      </trkpt>
      <trkpt lat="44.75336" lon="3.72657">
        <ele>998.67980957031</ele>
        <time>2020-11-02T09:00:34.015Z</time>
      </trkpt>
      <trkpt lat="44.75335" lon="3.72673">
        <ele>998.64379882812</ele>
        <time>2020-11-02T09:00:34.028Z</time>
      </trkpt>
      <trkpt lat="44.75332" lon="3.72685">
        <ele>998.10388183594</ele>
        <time>2020-11-02T09:00:34.043Z</time>
      </trkpt>
      <trkpt lat="44.75314" lon="3.72734">
        <ele>998.10717773438</ele>
        <time>2020-11-02T09:00:34.066Z</time>
      </trkpt>
      <trkpt lat="44.7531" lon="3.72745">
        <ele>997.66326904297</ele>
        <time>2020-11-02T09:00:34.091Z</time>
      </trkpt>
      <trkpt lat="44.75311" lon="3.72752">
        <ele>998.35913085938</ele>
        <time>2020-11-02T09:00:34.117Z</time>
      </trkpt>
      <trkpt lat="44.75304" lon="3.72783">
        <ele>998.43756103516</ele>
        <time>2020-11-02T09:00:34.147Z</time>
      </trkpt>
      <trkpt lat="44.75297" lon="3.72802">
        <ele>999.72998046875</ele>
        <time>2020-11-02T09:00:34.180Z</time>
      </trkpt>
      <trkpt lat="44.75288" lon="3.72817">
        <ele>1000.3418579102</ele>
        <time>2020-11-02T09:00:34.216Z</time>
      </trkpt>
      <trkpt lat="44.75276" lon="3.72824">
        <ele>1000.1014404297</ele>
        <time>2020-11-02T09:00:34.255Z</time>
      </trkpt>
      <trkpt lat="44.75252" lon="3.72828">
        <ele>997.66558837891</ele>
        <time>2020-11-02T09:00:34.298Z</time>
      </trkpt>
      <trkpt lat="44.75236" lon="3.72846">
        <ele>997.11370849609</ele>
        <time>2020-11-02T09:00:34.346Z</time>
      </trkpt>
      <trkpt lat="44.75226" lon="3.72857">
        <ele>997.08618164062</ele>
        <time>2020-11-02T09:00:34.396Z</time>
      </trkpt>
      <trkpt lat="44.75207" lon="3.72892">
        <ele>1001.6813964844</ele>
        <time>2020-11-02T09:00:34.452Z</time>
      </trkpt>
      <trkpt lat="44.75196" lon="3.72912">
        <ele>1005.2710571289</ele>
        <time>2020-11-02T09:00:34.512Z</time>
      </trkpt>
      <trkpt lat="44.75188" lon="3.72936">
        <ele>1008.7205810547</ele>
        <time>2020-11-02T09:00:34.576Z</time>
      </trkpt>
      <trkpt lat="44.75185" lon="3.72948">
        <ele>1010.414855957</ele>
        <time>2020-11-02T09:00:34.642Z</time>
      </trkpt>
      <trkpt lat="44.75185" lon="3.7296">
        <ele>1012.5745239258</ele>
        <time>2020-11-02T09:00:34.709Z</time>
      </trkpt>
      <trkpt lat="44.75181" lon="3.72994">
        <ele>1018.1655883789</ele>
        <time>2020-11-02T09:00:34.781Z</time>
      </trkpt>
      <trkpt lat="44.75179" lon="3.7301">
        <ele>1023.6057128906</ele>
        <time>2020-11-02T09:00:34.856Z</time>
      </trkpt>
      <trkpt lat="44.7518" lon="3.73022">
        <ele>1027.560546875</ele>
        <time>2020-11-02T09:00:34.932Z</time>
      </trkpt>
      <trkpt lat="44.7518" lon="3.73036">
        <ele>1028.568359375</ele>
        <time>2020-11-02T09:00:35.010Z</time>
      </trkpt>
      <trkpt lat="44.75175" lon="3.73063">
        <ele>1030.8120117188</ele>
        <time>2020-11-02T09:00:35.092Z</time>
      </trkpt>
      <trkpt lat="44.75172" lon="3.73088">
        <ele>1034.1662597656</ele>
        <time>2020-11-02T09:00:35.178Z</time>
      </trkpt>
      <trkpt lat="44.75171" lon="3.73109">
        <ele>1036.90625</ele>
        <time>2020-11-02T09:00:35.267Z</time>
      </trkpt>
      <trkpt lat="44.75172" lon="3.7313">
        <ele>1037.2661132812</ele>
        <time>2020-11-02T09:00:35.359Z</time>
      </trkpt>
      <trkpt lat="44.75168" lon="3.73154">
        <ele>1038.2368164062</ele>
        <time>2020-11-02T09:00:35.454Z</time>
      </trkpt>
      <trkpt lat="44.75164" lon="3.73188">
        <ele>1037.4162597656</ele>
        <time>2020-11-02T09:00:35.554Z</time>
      </trkpt>
      <trkpt lat="44.75165" lon="3.73239">
        <ele>1039.5036621094</ele>
        <time>2020-11-02T09:00:35.662Z</time>
      </trkpt>
      <trkpt lat="44.75165" lon="3.73315">
        <ele>1041.4860839844</ele>
        <time>2020-11-02T09:00:35.780Z</time>
      </trkpt>
      <trkpt lat="44.75172" lon="3.73338">
        <ele>1042.1700439453</ele>
        <time>2020-11-02T09:00:35.902Z</time>
      </trkpt>
      <trkpt lat="44.75188" lon="3.73383">
        <ele>1042.6713867188</ele>
        <time>2020-11-02T09:00:36.031Z</time>
      </trkpt>
      <trkpt lat="44.75192" lon="3.73392">
        <ele>1042.6473388672</ele>
        <time>2020-11-02T09:00:36.162Z</time>
      </trkpt>
      <trkpt lat="44.752" lon="3.73394">
        <ele>1042.2154541016</ele>
        <time>2020-11-02T09:00:36.294Z</time>
      </trkpt>
      <trkpt lat="44.75206" lon="3.734">
        <ele>1042.2559814453</ele>
        <time>2020-11-02T09:00:36.428Z</time>
      </trkpt>
      <trkpt lat="44.75207" lon="3.73405">
        <ele>1042.4599609375</ele>
        <time>2020-11-02T09:00:36.562Z</time>
      </trkpt>
      <trkpt lat="44.75205" lon="3.73416">
        <ele>1042.5559082031</ele>
        <time>2020-11-02T09:00:36.698Z</time>
      </trkpt>
      <trkpt lat="44.75228" lon="3.73442">
        <ele>1045.1685791016</ele>
        <time>2020-11-02T09:00:36.840Z</time>
      </trkpt>
      <trkpt lat="44.75235" lon="3.73457">
        <ele>1046.2963867188</ele>
        <time>2020-11-02T09:00:36.985Z</time>
      </trkpt>
      <trkpt lat="44.75241" lon="3.73485">
        <ele>1048.2032470703</ele>
        <time>2020-11-02T09:00:37.134Z</time>
      </trkpt>
      <trkpt lat="44.7525" lon="3.73506">
        <ele>1050.1469726562</ele>
        <time>2020-11-02T09:00:37.286Z</time>
      </trkpt>
      <trkpt lat="44.75254" lon="3.73516">
        <ele>1051.0588378906</ele>
        <time>2020-11-02T09:00:37.440Z</time>
      </trkpt>
      <trkpt lat="44.75256" lon="3.73532">
        <ele>1052.0327148438</ele>
        <time>2020-11-02T09:00:37.596Z</time>
      </trkpt>
      <trkpt lat="44.75259" lon="3.73542">
        <ele>1052.6566162109</ele>
        <time>2020-11-02T09:00:37.754Z</time>
      </trkpt>
      <trkpt lat="44.75275" lon="3.73582">
        <ele>1055.3442382812</ele>
        <time>2020-11-02T09:00:37.918Z</time>
      </trkpt>
      <trkpt lat="44.7529" lon="3.73604">
        <ele>1057.0330810547</ele>
        <time>2020-11-02T09:00:38.087Z</time>
      </trkpt>
      <trkpt lat="44.75295" lon="3.73604">
        <ele>1057.0930175781</ele>
        <time>2020-11-02T09:00:38.257Z</time>
      </trkpt>
      <trkpt lat="44.75312" lon="3.73617">
        <ele>1058.0769042969</ele>
        <time>2020-11-02T09:00:38.430Z</time>
      </trkpt>
      <trkpt lat="44.75341" lon="3.73646">
        <ele>1060.1645507812</ele>
        <time>2020-11-02T09:00:38.611Z</time>
      </trkpt>
      <trkpt lat="44.75363" lon="3.73667">
        <ele>1061.6883544922</ele>
        <time>2020-11-02T09:00:38.797Z</time>
      </trkpt>
      <trkpt lat="44.7537" lon="3.73677">
        <ele>1062.3721923828</ele>
        <time>2020-11-02T09:00:38.985Z</time>
      </trkpt>
      <trkpt lat="44.75383" lon="3.7371">
        <ele>1063.8177490234</ele>
        <time>2020-11-02T09:00:39.178Z</time>
      </trkpt>
      <trkpt lat="44.75389" lon="3.73738">
        <ele>1064.8255615234</ele>
        <time>2020-11-02T09:00:39.375Z</time>
      </trkpt>
      <trkpt lat="44.75395" lon="3.73762">
        <ele>1065.6787109375</ele>
        <time>2020-11-02T09:00:39.576Z</time>
      </trkpt>
      <trkpt lat="44.75395" lon="3.73762">
        <ele>1065.6893310547</ele>
        <time>2020-11-02T09:00:39.777Z</time>
      </trkpt>
      <trkpt lat="44.754" lon="3.73782">
        <ele>1066.2728271484</ele>
        <time>2020-11-02T09:00:39.981Z</time>
      </trkpt>
      <trkpt lat="44.75395" lon="3.73784">
        <ele>1066.3208007812</ele>
        <time>2020-11-02T09:00:40.186Z</time>
      </trkpt>
      <trkpt lat="44.75366" lon="3.738">
        <ele>1067.4095458984</ele>
        <time>2020-11-02T09:00:40.397Z</time>
      </trkpt>
      <trkpt lat="44.75307" lon="3.73833">
        <ele>1070.0235595703</ele>
        <time>2020-11-02T09:00:40.621Z</time>
      </trkpt>
      <trkpt lat="44.75265" lon="3.7385">
        <ele>1072.2552490234</ele>
        <time>2020-11-02T09:00:40.854Z</time>
      </trkpt>
      <trkpt lat="44.7525" lon="3.73854">
        <ele>1072.9030761719</ele>
        <time>2020-11-02T09:00:41.090Z</time>
      </trkpt>
      <trkpt lat="44.75187" lon="3.73858">
        <ele>1074.7510986328</ele>
        <time>2020-11-02T09:00:41.338Z</time>
      </trkpt>
      <trkpt lat="44.75157" lon="3.73864">
        <ele>1075.9748535156</ele>
        <time>2020-11-02T09:00:41.593Z</time>
      </trkpt>
      <trkpt lat="44.7514" lon="3.7387">
        <ele>1076.88671875</ele>
        <time>2020-11-02T09:00:41.851Z</time>
      </trkpt>
      <trkpt lat="44.75105" lon="3.73883">
        <ele>1077.4255371094</ele>
        <time>2020-11-02T09:00:42.116Z</time>
      </trkpt>
      <trkpt lat="44.75088" lon="3.73891">
        <ele>1078.1213378906</ele>
        <time>2020-11-02T09:00:42.385Z</time>
      </trkpt>
      <trkpt lat="44.75055" lon="3.73906">
        <ele>1079.453125</ele>
        <time>2020-11-02T09:00:42.661Z</time>
      </trkpt>
      <trkpt lat="44.75046" lon="3.73908">
        <ele>1079.7410888672</ele>
        <time>2020-11-02T09:00:42.939Z</time>
      </trkpt>
      <trkpt lat="44.75005" lon="3.73909">
        <ele>1080.4211425781</ele>
        <time>2020-11-02T09:00:43.225Z</time>
      </trkpt>
      <trkpt lat="44.74994" lon="3.73909">
        <ele>1080.6850585938</ele>
        <time>2020-11-02T09:00:43.513Z</time>
      </trkpt>
      <trkpt lat="44.74971" lon="3.7406">
        <ele>1081.1926269531</ele>
        <time>2020-11-02T09:00:43.823Z</time>
      </trkpt>
      <trkpt lat="44.74967" lon="3.74093">
        <ele>1081.3846435547</ele>
        <time>2020-11-02T09:00:44.138Z</time>
      </trkpt>
      <trkpt lat="44.7495" lon="3.7417">
        <ele>1081.458984375</ele>
        <time>2020-11-02T09:00:44.464Z</time>
      </trkpt>
      <trkpt lat="44.74936" lon="3.74239">
        <ele>1078.9929199219</ele>
        <time>2020-11-02T09:00:44.801Z</time>
      </trkpt>
      <trkpt lat="44.74926" lon="3.7427">
        <ele>1077.0740966797</ele>
        <time>2020-11-02T09:00:45.142Z</time>
      </trkpt>
      <trkpt lat="44.74911" lon="3.7431">
        <ele>1073.783203125</ele>
        <time>2020-11-02T09:00:45.490Z</time>
      </trkpt>
      <trkpt lat="44.74891" lon="3.74348">
        <ele>1072.9114990234</ele>
        <time>2020-11-02T09:00:45.845Z</time>
      </trkpt>
      <trkpt lat="44.74884" lon="3.74372">
        <ele>1071.1719970703</ele>
        <time>2020-11-02T09:00:46.203Z</time>
      </trkpt>
      <trkpt lat="44.74873" lon="3.74391">
        <ele>1070.2720947266</ele>
        <time>2020-11-02T09:00:46.565Z</time>
      </trkpt>
      <trkpt lat="44.7485" lon="3.74416">
        <ele>1070.0540771484</ele>
        <time>2020-11-02T09:00:46.933Z</time>
      </trkpt>
      <trkpt lat="44.74829" lon="3.74435">
        <ele>1068.3541259766</ele>
        <time>2020-11-02T09:00:47.306Z</time>
      </trkpt>
      <trkpt lat="44.74813" lon="3.74451">
        <ele>1067.3076171875</ele>
        <time>2020-11-02T09:00:47.682Z</time>
      </trkpt>
      <trkpt lat="44.748" lon="3.74478">
        <ele>1064.0054931641</ele>
        <time>2020-11-02T09:00:48.063Z</time>
      </trkpt>
      <trkpt lat="44.7478" lon="3.74514">
        <ele>1059.5834960938</ele>
        <time>2020-11-02T09:00:48.451Z</time>
      </trkpt>
      <trkpt lat="44.74779" lon="3.74527">
        <ele>1057.7595214844</ele>
        <time>2020-11-02T09:00:48.840Z</time>
      </trkpt>
      <trkpt lat="44.74786" lon="3.74541">
        <ele>1055.6599121094</ele>
        <time>2020-11-02T09:00:49.232Z</time>
      </trkpt>
      <trkpt lat="44.74807" lon="3.74582">
        <ele>1049.9493408203</ele>
        <time>2020-11-02T09:00:49.631Z</time>
      </trkpt>
      <trkpt lat="44.74821" lon="3.74612">
        <ele>1046.3198242188</ele>
        <time>2020-11-02T09:00:50.035Z</time>
      </trkpt>
      <trkpt lat="44.74841" lon="3.7466">
        <ele>1042.7203369141</ele>
        <time>2020-11-02T09:00:50.447Z</time>
      </trkpt>
      <trkpt lat="44.74845" lon="3.74675">
        <ele>1041.6765136719</ele>
        <time>2020-11-02T09:00:50.861Z</time>
      </trkpt>
      <trkpt lat="44.74855" lon="3.74696">
        <ele>1039.9542236328</ele>
        <time>2020-11-02T09:00:51.279Z</time>
      </trkpt>
      <trkpt lat="44.74869" lon="3.74735">
        <ele>1036.6428222656</ele>
        <time>2020-11-02T09:00:51.703Z</time>
      </trkpt>
      <trkpt lat="44.74874" lon="3.74775">
        <ele>1033.6850585938</ele>
        <time>2020-11-02T09:00:52.133Z</time>
      </trkpt>
      <trkpt lat="44.74884" lon="3.74837">
        <ele>1028.5979003906</ele>
        <time>2020-11-02T09:00:52.572Z</time>
      </trkpt>
      <trkpt lat="44.74888" lon="3.74851">
        <ele>1027.4700927734</ele>
        <time>2020-11-02T09:00:53.013Z</time>
      </trkpt>
      <trkpt lat="44.74891" lon="3.74859">
        <ele>1026.7758789062</ele>
        <time>2020-11-02T09:00:53.456Z</time>
      </trkpt>
      <trkpt lat="44.74893" lon="3.7486">
        <ele>1026.7038574219</ele>
        <time>2020-11-02T09:00:53.899Z</time>
      </trkpt>
      <trkpt lat="44.7489" lon="3.74865">
        <ele>1026.1879882812</ele>
        <time>2020-11-02T09:00:54.343Z</time>
      </trkpt>
      <trkpt lat="44.74889" lon="3.74866">
        <ele>1026.0799560547</ele>
        <time>2020-11-02T09:00:54.787Z</time>
      </trkpt>
      <trkpt lat="44.74886" lon="3.74868">
        <ele>1025.8520507812</ele>
        <time>2020-11-02T09:00:55.232Z</time>
      </trkpt>
      <trkpt lat="44.74876" lon="3.74867">
        <ele>1025.9202880859</ele>
        <time>2020-11-02T09:00:55.679Z</time>
      </trkpt>
      <trkpt lat="44.74858" lon="3.74862">
        <ele>1026.1862792969</ele>
        <time>2020-11-02T09:00:56.130Z</time>
      </trkpt>
      <trkpt lat="44.74844" lon="3.74864">
        <ele>1025.8503417969</ele>
        <time>2020-11-02T09:00:56.583Z</time>
      </trkpt>
      <trkpt lat="44.74828" lon="3.74853">
        <ele>1026.5821533203</ele>
        <time>2020-11-02T09:00:57.040Z</time>
      </trkpt>
      <trkpt lat="44.7481" lon="3.74845">
        <ele>1027.0380859375</ele>
        <time>2020-11-02T09:00:57.501Z</time>
      </trkpt>
      <trkpt lat="44.74805" lon="3.74846">
        <ele>1026.8941650391</ele>
        <time>2020-11-02T09:00:57.963Z</time>
      </trkpt>
      <trkpt lat="44.74787" lon="3.7487">
        <ele>1025.0661621094</ele>
        <time>2020-11-02T09:00:58.430Z</time>
      </trkpt>
      <trkpt lat="44.74769" lon="3.74896">
        <ele>1024.154296875</ele>
        <time>2020-11-02T09:00:58.902Z</time>
      </trkpt>
      <trkpt lat="44.74758" lon="3.74908">
        <ele>1023.8303833008</ele>
        <time>2020-11-02T09:00:59.377Z</time>
      </trkpt>
      <trkpt lat="44.74747" lon="3.74914">
        <ele>1024.4779052734</ele>
        <time>2020-11-02T09:00:59.854Z</time>
      </trkpt>
      <trkpt lat="44.74745" lon="3.74916">
        <ele>1024.5739746094</ele>
        <time>2020-11-02T09:01:00.331Z</time>
      </trkpt>
      <trkpt lat="44.74734" lon="3.74908">
        <ele>1025.5577392578</ele>
        <time>2020-11-02T09:01:00.811Z</time>
      </trkpt>
      <trkpt lat="44.74727" lon="3.74905">
        <ele>1026.1336669922</ele>
        <time>2020-11-02T09:01:01.292Z</time>
      </trkpt>
      <trkpt lat="44.74722" lon="3.74904">
        <ele>1026.517578125</ele>
        <time>2020-11-02T09:01:01.774Z</time>
      </trkpt>
      <trkpt lat="44.74705" lon="3.74895">
        <ele>1027.9573974609</ele>
        <time>2020-11-02T09:01:02.260Z</time>
      </trkpt>
      <trkpt lat="44.74686" lon="3.74884">
        <ele>1030.4594726562</ele>
        <time>2020-11-02T09:01:02.750Z</time>
      </trkpt>
      <trkpt lat="44.7467" lon="3.749">
        <ele>1031.9952392578</ele>
        <time>2020-11-02T09:01:03.244Z</time>
      </trkpt>
      <trkpt lat="44.74665" lon="3.74902">
        <ele>1032.5908203125</ele>
        <time>2020-11-02T09:01:03.739Z</time>
      </trkpt>
      <trkpt lat="44.74659" lon="3.749">
        <ele>1033.4067382812</ele>
        <time>2020-11-02T09:01:04.235Z</time>
      </trkpt>
      <trkpt lat="44.74652" lon="3.74896">
        <ele>1034.3785400391</ele>
        <time>2020-11-02T09:01:04.733Z</time>
      </trkpt>
      <trkpt lat="44.74635" lon="3.74891">
        <ele>1036.6821289062</ele>
        <time>2020-11-02T09:01:05.234Z</time>
      </trkpt>
      <trkpt lat="44.74618" lon="3.74895">
        <ele>1038.8109130859</ele>
        <time>2020-11-02T09:01:05.739Z</time>
      </trkpt>
      <trkpt lat="44.74603" lon="3.74905">
        <ele>1040.3106689453</ele>
        <time>2020-11-02T09:01:06.247Z</time>
      </trkpt>
      <trkpt lat="44.74581" lon="3.7491">
        <ele>1041.8885498047</ele>
        <time>2020-11-02T09:01:06.760Z</time>
      </trkpt>
      <trkpt lat="44.7457" lon="3.74921">
        <ele>1041.6246337891</ele>
        <time>2020-11-02T09:01:07.275Z</time>
      </trkpt>
      <trkpt lat="44.74558" lon="3.74939">
        <ele>1040.9046630859</ele>
        <time>2020-11-02T09:01:07.794Z</time>
      </trkpt>
      <trkpt lat="44.74547" lon="3.74952">
        <ele>1040.4967041016</ele>
        <time>2020-11-02T09:01:08.316Z</time>
      </trkpt>
      <trkpt lat="44.7453" lon="3.7497">
        <ele>1039.4812011719</ele>
        <time>2020-11-02T09:01:08.842Z</time>
      </trkpt>
      <trkpt lat="44.7452" lon="3.74976">
        <ele>1038.8093261719</ele>
        <time>2020-11-02T09:01:09.370Z</time>
      </trkpt>
      <trkpt lat="44.74495" lon="3.74987">
        <ele>1037.5207519531</ele>
        <time>2020-11-02T09:01:09.903Z</time>
      </trkpt>
      <trkpt lat="44.74476" lon="3.74993">
        <ele>1036.9328613281</ele>
        <time>2020-11-02T09:01:10.440Z</time>
      </trkpt>
      <trkpt lat="44.74453" lon="3.75">
        <ele>1036.2631835938</ele>
        <time>2020-11-02T09:01:10.982Z</time>
      </trkpt>
      <trkpt lat="44.74444" lon="3.75007">
        <ele>1035.9512939453</ele>
        <time>2020-11-02T09:01:11.526Z</time>
      </trkpt>
      <trkpt lat="44.74428" lon="3.75028">
        <ele>1035.5954589844</ele>
        <time>2020-11-02T09:01:12.074Z</time>
      </trkpt>
      <trkpt lat="44.74403" lon="3.75052">
        <ele>1035.3435058594</ele>
        <time>2020-11-02T09:01:12.628Z</time>
      </trkpt>
      <trkpt lat="44.74384" lon="3.75073">
        <ele>1036.4200439453</ele>
        <time>2020-11-02T09:01:13.187Z</time>
      </trkpt>
      <trkpt lat="44.74354" lon="3.75103">
        <ele>1039.0518798828</ele>
        <time>2020-11-02T09:01:13.754Z</time>
      </trkpt>
      <trkpt lat="44.74312" lon="3.7514">
        <ele>1042.1126708984</ele>
        <time>2020-11-02T09:01:14.331Z</time>
      </trkpt>
      <trkpt lat="44.74294" lon="3.75159">
        <ele>1040.2648925781</ele>
        <time>2020-11-02T09:01:14.912Z</time>
      </trkpt>
      <trkpt lat="44.74283" lon="3.75168">
        <ele>1039.2379150391</ele>
        <time>2020-11-02T09:01:15.496Z</time>
      </trkpt>
      <trkpt lat="44.74261" lon="3.75179">
        <ele>1037.8189697266</ele>
        <time>2020-11-02T09:01:16.084Z</time>
      </trkpt>
      <trkpt lat="44.74222" lon="3.75203">
        <ele>1036.2576904297</ele>
        <time>2020-11-02T09:01:16.681Z</time>
      </trkpt>
      <trkpt lat="44.74215" lon="3.75206">
        <ele>1035.9332275391</ele>
        <time>2020-11-02T09:01:17.279Z</time>
      </trkpt>
      <trkpt lat="44.74202" lon="3.75205">
        <ele>1035.7425537109</ele>
        <time>2020-11-02T09:01:17.880Z</time>
      </trkpt>
      <trkpt lat="44.74181" lon="3.7521">
        <ele>1035.3825683594</ele>
        <time>2020-11-02T09:01:18.485Z</time>
      </trkpt>
      <trkpt lat="44.74169" lon="3.75215">
        <ele>1035.0227050781</ele>
        <time>2020-11-02T09:01:19.093Z</time>
      </trkpt>
      <trkpt lat="44.74151" lon="3.75221">
        <ele>1034.6668701172</ele>
        <time>2020-11-02T09:01:19.704Z</time>
      </trkpt>
      <trkpt lat="44.74145" lon="3.75221">
        <ele>1034.8107910156</ele>
        <time>2020-11-02T09:01:20.317Z</time>
      </trkpt>
      <trkpt lat="44.74125" lon="3.7522">
        <ele>1035.3387451172</ele>
        <time>2020-11-02T09:01:20.934Z</time>
      </trkpt>
      <trkpt lat="44.74105" lon="3.75216">
        <ele>1037.3295898438</ele>
        <time>2020-11-02T09:01:21.555Z</time>
      </trkpt>
      <trkpt lat="44.74074" lon="3.75215">
        <ele>1040.7250976562</ele>
        <time>2020-11-02T09:01:22.182Z</time>
      </trkpt>
      <trkpt lat="44.74038" lon="3.75219">
        <ele>1042.5712890625</ele>
        <time>2020-11-02T09:01:22.816Z</time>
      </trkpt>
      <trkpt lat="44.74013" lon="3.75229">
        <ele>1046.1981201172</ele>
        <time>2020-11-02T09:01:23.455Z</time>
      </trkpt>
      <trkpt lat="44.73999" lon="3.75237">
        <ele>1048.0218505859</ele>
        <time>2020-11-02T09:01:24.097Z</time>
      </trkpt>
      <trkpt lat="44.73979" lon="3.75258">
        <ele>1049.5936279297</ele>
        <time>2020-11-02T09:01:24.744Z</time>
      </trkpt>
      <trkpt lat="44.73964" lon="3.7528">
        <ele>1050.42578125</ele>
        <time>2020-11-02T09:01:25.396Z</time>
      </trkpt>
      <trkpt lat="44.73954" lon="3.75293">
        <ele>1049.8161621094</ele>
        <time>2020-11-02T09:01:26.050Z</time>
      </trkpt>
      <trkpt lat="44.73946" lon="3.75307">
        <ele>1048.5684814453</ele>
        <time>2020-11-02T09:01:26.707Z</time>
      </trkpt>
      <trkpt lat="44.73918" lon="3.75343">
        <ele>1045.7755126953</ele>
        <time>2020-11-02T09:01:27.371Z</time>
      </trkpt>
      <trkpt lat="44.73907" lon="3.75358">
        <ele>1044.5407714844</ele>
        <time>2020-11-02T09:01:28.039Z</time>
      </trkpt>
      <trkpt lat="44.73896" lon="3.75343">
        <ele>1047.6231689453</ele>
        <time>2020-11-02T09:01:28.710Z</time>
      </trkpt>
      <trkpt lat="44.7389" lon="3.75335">
        <ele>1049.3748779297</ele>
        <time>2020-11-02T09:01:29.382Z</time>
      </trkpt>
      <trkpt lat="44.73885" lon="3.75331">
        <ele>1050.4187011719</ele>
        <time>2020-11-02T09:01:30.055Z</time>
      </trkpt>
      <trkpt lat="44.73876" lon="3.7533">
        <ele>1051.3305664062</ele>
        <time>2020-11-02T09:01:30.730Z</time>
      </trkpt>
      <trkpt lat="44.73865" lon="3.75338">
        <ele>1050.7348632812</ele>
        <time>2020-11-02T09:01:31.408Z</time>
      </trkpt>
      <trkpt lat="44.73835" lon="3.75361">
        <ele>1051.6287841797</ele>
        <time>2020-11-02T09:01:32.093Z</time>
      </trkpt>
      <trkpt lat="44.73824" lon="3.7538">
        <ele>1051.1248779297</ele>
        <time>2020-11-02T09:01:32.781Z</time>
      </trkpt>
      <trkpt lat="44.73782" lon="3.75388">
        <ele>1056.1428222656</ele>
        <time>2020-11-02T09:01:33.477Z</time>
      </trkpt>
      <trkpt lat="44.73752" lon="3.75394">
        <ele>1058.9503173828</ele>
        <time>2020-11-02T09:01:34.180Z</time>
      </trkpt>
      <trkpt lat="44.73723" lon="3.75403">
        <ele>1063.2181396484</ele>
        <time>2020-11-02T09:01:34.888Z</time>
      </trkpt>
      <trkpt lat="44.73682" lon="3.75422">
        <ele>1067.4614257812</ele>
        <time>2020-11-02T09:01:35.605Z</time>
      </trkpt>
      <trkpt lat="44.73668" lon="3.7542">
        <ele>1067.9173583984</ele>
        <time>2020-11-02T09:01:36.325Z</time>
      </trkpt>
      <trkpt lat="44.73662" lon="3.75415">
        <ele>1068.361328125</ele>
        <time>2020-11-02T09:01:37.046Z</time>
      </trkpt>
      <trkpt lat="44.73652" lon="3.75402">
        <ele>1069.3811035156</ele>
        <time>2020-11-02T09:01:37.770Z</time>
      </trkpt>
      <trkpt lat="44.73631" lon="3.75379">
        <ele>1071.2647705078</ele>
        <time>2020-11-02T09:01:38.499Z</time>
      </trkpt>
      <trkpt lat="44.73622" lon="3.75374">
        <ele>1071.7807617188</ele>
        <time>2020-11-02T09:01:39.230Z</time>
      </trkpt>
      <trkpt lat="44.73611" lon="3.7537">
        <ele>1072.5155029297</ele>
        <time>2020-11-02T09:01:39.964Z</time>
      </trkpt>
      <trkpt lat="44.7359" lon="3.75341">
        <ele>1074.9456787109</ele>
        <time>2020-11-02T09:01:40.703Z</time>
      </trkpt>
      <trkpt lat="44.73557" lon="3.75292">
        <ele>1078.2930908203</ele>
        <time>2020-11-02T09:01:41.452Z</time>
      </trkpt>
      <trkpt lat="44.73535" lon="3.75259">
        <ele>1079.9515380859</ele>
        <time>2020-11-02T09:01:42.208Z</time>
      </trkpt>
      <trkpt lat="44.73514" lon="3.7524">
        <ele>1078.4157714844</ele>
        <time>2020-11-02T09:01:42.969Z</time>
      </trkpt>
      <trkpt lat="44.735" lon="3.75234">
        <ele>1077.3355712891</ele>
        <time>2020-11-02T09:01:43.732Z</time>
      </trkpt>
      <trkpt lat="44.7349" lon="3.75233">
        <ele>1077.0477294922</ele>
        <time>2020-11-02T09:01:44.497Z</time>
      </trkpt>
      <trkpt lat="44.73494" lon="3.75224">
        <ele>1076.9279785156</ele>
        <time>2020-11-02T09:01:45.264Z</time>
      </trkpt>
      <trkpt lat="44.73505" lon="3.75211">
        <ele>1078.0078125</ele>
        <time>2020-11-02T09:01:46.034Z</time>
      </trkpt>
      <trkpt lat="44.73515" lon="3.75204">
        <ele>1078.9317626953</ele>
        <time>2020-11-02T09:01:46.806Z</time>
      </trkpt>
      <trkpt lat="44.73548" lon="3.75182">
        <ele>1081</ele>
        <time>2020-11-02T09:01:47.585Z</time>
      </trkpt>
      <trkpt lat="44.7356" lon="3.75174">
        <ele>1081</ele>
        <time>2020-11-02T09:01:48.367Z</time>
      </trkpt>
      <trkpt lat="44.73584" lon="3.75154">
        <ele>1081</ele>
        <time>2020-11-02T09:01:49.155Z</time>
      </trkpt>
      <trkpt lat="44.73596" lon="3.75144">
        <ele>1082.361328125</ele>
        <time>2020-11-02T09:01:49.945Z</time>
      </trkpt>
      <trkpt lat="44.7361" lon="3.75137">
        <ele>1083.8731689453</ele>
        <time>2020-11-02T09:01:50.738Z</time>
      </trkpt>
      <trkpt lat="44.7363" lon="3.75126">
        <ele>1084.9794921875</ele>
        <time>2020-11-02T09:01:51.536Z</time>
      </trkpt>
      <trkpt lat="44.73653" lon="3.7511">
        <ele>1085.6649169922</ele>
        <time>2020-11-02T09:01:52.339Z</time>
      </trkpt>
      <trkpt lat="44.73716" lon="3.75054">
        <ele>1083.5317382812</ele>
        <time>2020-11-02T09:01:53.157Z</time>
      </trkpt>
      <trkpt lat="44.73758" lon="3.75011">
        <ele>1082.11328125</ele>
        <time>2020-11-02T09:01:53.985Z</time>
      </trkpt>
      <trkpt lat="44.73779" lon="3.74992">
        <ele>1080.9620361328</ele>
        <time>2020-11-02T09:01:54.818Z</time>
      </trkpt>
      <trkpt lat="44.73792" lon="3.74982">
        <ele>1080.4334716797</ele>
        <time>2020-11-02T09:01:55.654Z</time>
      </trkpt>
      <trkpt lat="44.73822" lon="3.74963">
        <ele>1078.8898925781</ele>
        <time>2020-11-02T09:01:56.497Z</time>
      </trkpt>
      <trkpt lat="44.73834" lon="3.7495">
        <ele>1078.5899658203</ele>
        <time>2020-11-02T09:01:57.343Z</time>
      </trkpt>
      <trkpt lat="44.73845" lon="3.74928">
        <ele>1077.8524169922</ele>
        <time>2020-11-02T09:01:58.193Z</time>
      </trkpt>
      <trkpt lat="44.73851" lon="3.74909">
        <ele>1077.3981933594</ele>
        <time>2020-11-02T09:01:59.046Z</time>
      </trkpt>
      <trkpt lat="44.73862" lon="3.74879">
        <ele>1078.2860107422</ele>
        <time>2020-11-02T09:01:59.903Z</time>
      </trkpt>
      <trkpt lat="44.73894" lon="3.74822">
        <ele>1080.1199951172</ele>
        <time>2020-11-02T09:02:00.771Z</time>
      </trkpt>
      <trkpt lat="44.73941" lon="3.74783">
        <ele>1083.0731201172</ele>
        <time>2020-11-02T09:02:01.650Z</time>
      </trkpt>
      <trkpt lat="44.73986" lon="3.74753">
        <ele>1083.5729980469</ele>
        <time>2020-11-02T09:02:02.539Z</time>
      </trkpt>
      <trkpt lat="44.74019" lon="3.74728">
        <ele>1083.2662353516</ele>
        <time>2020-11-02T09:02:03.435Z</time>
      </trkpt>
      <trkpt lat="44.7406" lon="3.74699">
        <ele>1082.7283935547</ele>
        <time>2020-11-02T09:02:04.340Z</time>
      </trkpt>
      <trkpt lat="44.7411" lon="3.74651">
        <ele>1082.2568359375</ele>
        <time>2020-11-02T09:02:05.257Z</time>
      </trkpt>
      <trkpt lat="44.74146" lon="3.74611">
        <ele>1080.7032470703</ele>
        <time>2020-11-02T09:02:06.184Z</time>
      </trkpt>
      <trkpt lat="44.7416" lon="3.74592">
        <ele>1080.1141357422</ele>
        <time>2020-11-02T09:02:07.114Z</time>
      </trkpt>
      <trkpt lat="44.74172" lon="3.74569">
        <ele>1079.6114501953</ele>
        <time>2020-11-02T09:02:08.049Z</time>
      </trkpt>
      <trkpt lat="44.74183" lon="3.74552">
        <ele>1079.7377929688</ele>
        <time>2020-11-02T09:02:08.987Z</time>
      </trkpt>
      <trkpt lat="44.74183" lon="3.74552">
        <ele>1079.7553710938</ele>
        <time>2020-11-02T09:02:09.925Z</time>
      </trkpt>
      <trkpt lat="44.74186" lon="3.74549">
        <ele>1079.7553710938</ele>
        <time>2020-11-02T09:02:10.864Z</time>
      </trkpt>
      <trkpt lat="44.74192" lon="3.74543">
        <ele>1079.7553710938</ele>
        <time>2020-11-02T09:02:11.804Z</time>
      </trkpt>
      <trkpt lat="44.74177" lon="3.74544">
        <ele>1080.0913085938</ele>
        <time>2020-11-02T09:02:12.747Z</time>
      </trkpt>
      <trkpt lat="44.7415" lon="3.7454">
        <ele>1080.8352050781</ele>
        <time>2020-11-02T09:02:13.696Z</time>
      </trkpt>
      <trkpt lat="44.74142" lon="3.74536">
        <ele>1081.1231689453</ele>
        <time>2020-11-02T09:02:14.646Z</time>
      </trkpt>
      <trkpt lat="44.74133" lon="3.7453">
        <ele>1081.4831542969</ele>
        <time>2020-11-02T09:02:15.598Z</time>
      </trkpt>
      <trkpt lat="44.74103" lon="3.74497">
        <ele>1082.3522949219</ele>
        <time>2020-11-02T09:02:16.558Z</time>
      </trkpt>
      <trkpt lat="44.74061" lon="3.74445">
        <ele>1083.2401123047</ele>
        <time>2020-11-02T09:02:17.529Z</time>
      </trkpt>
      <trkpt lat="44.74019" lon="3.7439">
        <ele>1082.8624267578</ele>
        <time>2020-11-02T09:02:18.512Z</time>
      </trkpt>
      <trkpt lat="44.73983" lon="3.74336">
        <ele>1081.7833251953</ele>
        <time>2020-11-02T09:02:19.505Z</time>
      </trkpt>
      <trkpt lat="44.73934" lon="3.74255">
        <ele>1080.9484863281</ele>
        <time>2020-11-02T09:02:20.513Z</time>
      </trkpt>
      <trkpt lat="44.73906" lon="3.742">
        <ele>1081</ele>
        <time>2020-11-02T09:02:21.531Z</time>
      </trkpt>
      <trkpt lat="44.73893" lon="3.74176">
        <ele>1081</ele>
        <time>2020-11-02T09:02:22.553Z</time>
      </trkpt>
      <trkpt lat="44.73886" lon="3.7416">
        <ele>1081</ele>
        <time>2020-11-02T09:02:23.578Z</time>
      </trkpt>
      <trkpt lat="44.73835" lon="3.74052">
        <ele>1084.19140625</ele>
        <time>2020-11-02T09:02:24.621Z</time>
      </trkpt>
      <trkpt lat="44.73819" lon="3.74021">
        <ele>1085.7152099609</ele>
        <time>2020-11-02T09:02:25.670Z</time>
      </trkpt>
      <trkpt lat="44.73775" lon="3.73953">
        <ele>1083.4986572266</ele>
        <time>2020-11-02T09:02:26.732Z</time>
      </trkpt>
      <trkpt lat="44.73738" lon="3.73897">
        <ele>1082.3468017578</ele>
        <time>2020-11-02T09:02:27.805Z</time>
      </trkpt>
      <trkpt lat="44.73713" lon="3.73862">
        <ele>1081.8553466797</ele>
        <time>2020-11-02T09:02:28.885Z</time>
      </trkpt>
      <trkpt lat="44.73687" lon="3.73827">
        <ele>1077.5783691406</ele>
        <time>2020-11-02T09:02:29.972Z</time>
      </trkpt>
      <trkpt lat="44.73678" lon="3.7382">
        <ele>1075.9345703125</ele>
        <time>2020-11-02T09:02:31.061Z</time>
      </trkpt>
      <trkpt lat="44.7367" lon="3.73819">
        <ele>1074.9747314453</ele>
        <time>2020-11-02T09:02:32.152Z</time>
      </trkpt>
      <trkpt lat="44.73639" lon="3.73821">
        <ele>1074.1223144531</ele>
        <time>2020-11-02T09:02:33.249Z</time>
      </trkpt>
      <trkpt lat="44.73601" lon="3.73827">
        <ele>1070.7019042969</ele>
        <time>2020-11-02T09:02:34.354Z</time>
      </trkpt>
      <trkpt lat="44.73575" lon="3.73832">
        <ele>1068.8200683594</ele>
        <time>2020-11-02T09:02:35.464Z</time>
      </trkpt>
      <trkpt lat="44.73557" lon="3.73838">
        <ele>1068.6761474609</ele>
        <time>2020-11-02T09:02:36.578Z</time>
      </trkpt>
      <trkpt lat="44.73518" lon="3.73854">
        <ele>1069.1540527344</ele>
        <time>2020-11-02T09:02:37.700Z</time>
      </trkpt>
      <trkpt lat="44.73497" lon="3.7386">
        <ele>1068.2182617188</ele>
        <time>2020-11-02T09:02:38.826Z</time>
      </trkpt>
      <trkpt lat="44.7349" lon="3.73861">
        <ele>1067.7263183594</ele>
        <time>2020-11-02T09:02:39.953Z</time>
      </trkpt>
      <trkpt lat="44.73475" lon="3.73861">
        <ele>1066.2866210938</ele>
        <time>2020-11-02T09:02:41.083Z</time>
      </trkpt>
      <trkpt lat="44.7346" lon="3.73864">
        <ele>1065.5289306641</ele>
        <time>2020-11-02T09:02:42.216Z</time>
      </trkpt>
      <trkpt lat="44.73432" lon="3.73881">
        <ele>1067.2574462891</ele>
        <time>2020-11-02T09:02:43.355Z</time>
      </trkpt>
      <trkpt lat="44.73407" lon="3.73888">
        <ele>1066.9696044922</ele>
        <time>2020-11-02T09:02:44.500Z</time>
      </trkpt>
      <trkpt lat="44.73382" lon="3.73891">
        <ele>1065.2033691406</ele>
        <time>2020-11-02T09:02:45.650Z</time>
      </trkpt>
      <trkpt lat="44.73369" lon="3.73891">
        <ele>1063.8419189453</ele>
        <time>2020-11-02T09:02:46.802Z</time>
      </trkpt>
      <trkpt lat="44.73362" lon="3.73888">
        <ele>1062.0902099609</ele>
        <time>2020-11-02T09:02:47.956Z</time>
      </trkpt>
      <trkpt lat="44.7336" lon="3.7387">
        <ele>1058.298828125</ele>
        <time>2020-11-02T09:02:49.112Z</time>
      </trkpt>
      <trkpt lat="44.73358" lon="3.73858">
        <ele>1055.6591796875</ele>
        <time>2020-11-02T09:02:50.270Z</time>
      </trkpt>
      <trkpt lat="44.73352" lon="3.73853">
        <ele>1053.7501220703</ele>
        <time>2020-11-02T09:02:51.429Z</time>
      </trkpt>
      <trkpt lat="44.7334" lon="3.73847">
        <ele>1050.9426269531</ele>
        <time>2020-11-02T09:02:52.591Z</time>
      </trkpt>
      <trkpt lat="44.7333" lon="3.73832">
        <ele>1047.283203125</ele>
        <time>2020-11-02T09:02:53.756Z</time>
      </trkpt>
      <trkpt lat="44.73325" lon="3.73829">
        <ele>1046.0474853516</ele>
        <time>2020-11-02T09:02:54.922Z</time>
      </trkpt>
      <trkpt lat="44.73307" lon="3.73832">
        <ele>1043.419921875</ele>
        <time>2020-11-02T09:02:56.092Z</time>
      </trkpt>
      <trkpt lat="44.73293" lon="3.73836">
        <ele>1041.5961914062</ele>
        <time>2020-11-02T09:02:57.264Z</time>
      </trkpt>
      <trkpt lat="44.7328" lon="3.73837">
        <ele>1040.2387695312</ele>
        <time>2020-11-02T09:02:58.439Z</time>
      </trkpt>
      <trkpt lat="44.73273" lon="3.73842">
        <ele>1040.1782226562</ele>
        <time>2020-11-02T09:02:59.616Z</time>
      </trkpt>
      <trkpt lat="44.73268" lon="3.73843">
        <ele>1039.3743896484</ele>
        <time>2020-11-02T09:03:00.794Z</time>
      </trkpt>
      <trkpt lat="44.73264" lon="3.73842">
        <ele>1038.6665039062</ele>
        <time>2020-11-02T09:03:01.972Z</time>
      </trkpt>
      <trkpt lat="44.73258" lon="3.73833">
        <ele>1037.3347167969</ele>
        <time>2020-11-02T09:03:03.152Z</time>
      </trkpt>
      <trkpt lat="44.73257" lon="3.7382">
        <ele>1036.3393554688</ele>
        <time>2020-11-02T09:03:04.334Z</time>
      </trkpt>
      <trkpt lat="44.73261" lon="3.73809">
        <ele>1035.1755371094</ele>
        <time>2020-11-02T09:03:05.518Z</time>
      </trkpt>
      <trkpt lat="44.73268" lon="3.73803">
        <ele>1034.8876953125</ele>
        <time>2020-11-02T09:03:06.703Z</time>
      </trkpt>
      <trkpt lat="44.73283" lon="3.73795">
        <ele>1034.9116210938</ele>
        <time>2020-11-02T09:03:07.892Z</time>
      </trkpt>
      <trkpt lat="44.73309" lon="3.73791">
        <ele>1038.1771240234</ele>
        <time>2020-11-02T09:03:09.086Z</time>
      </trkpt>
      <trkpt lat="44.73327" lon="3.73789">
        <ele>1038.5369873047</ele>
        <time>2020-11-02T09:03:10.284Z</time>
      </trkpt>
      <trkpt lat="44.73344" lon="3.73783">
        <ele>1037.8411865234</ele>
        <time>2020-11-02T09:03:11.485Z</time>
      </trkpt>
      <trkpt lat="44.73362" lon="3.73777">
        <ele>1037.1932373047</ele>
        <time>2020-11-02T09:03:12.690Z</time>
      </trkpt>
      <trkpt lat="44.7338" lon="3.73771">
        <ele>1036.7713623047</ele>
        <time>2020-11-02T09:03:13.898Z</time>
      </trkpt>
      <trkpt lat="44.73392" lon="3.73763">
        <ele>1036.8096923828</ele>
        <time>2020-11-02T09:03:15.109Z</time>
      </trkpt>
      <trkpt lat="44.7341" lon="3.73745">
        <ele>1036.3776855469</ele>
        <time>2020-11-02T09:03:16.325Z</time>
      </trkpt>
      <trkpt lat="44.73417" lon="3.73743">
        <ele>1036.6916503906</ele>
        <time>2020-11-02T09:03:17.542Z</time>
      </trkpt>
      <trkpt lat="44.73417" lon="3.73744">
        <ele>1036.7856445312</ele>
        <time>2020-11-02T09:03:18.759Z</time>
      </trkpt>
      <trkpt lat="44.73445" lon="3.73736">
        <ele>1035.8747558594</ele>
        <time>2020-11-02T09:03:19.982Z</time>
      </trkpt>
      <trkpt lat="44.73464" lon="3.73729">
        <ele>1035.3538818359</ele>
        <time>2020-11-02T09:03:21.209Z</time>
      </trkpt>
      <trkpt lat="44.73499" lon="3.73704">
        <ele>1032.0930175781</ele>
        <time>2020-11-02T09:03:22.443Z</time>
      </trkpt>
      <trkpt lat="44.73521" lon="3.73678">
        <ele>1029.6118164062</ele>
        <time>2020-11-02T09:03:23.683Z</time>
      </trkpt>
      <trkpt lat="44.73546" lon="3.73643">
        <ele>1028.8638916016</ele>
        <time>2020-11-02T09:03:24.930Z</time>
      </trkpt>
      <trkpt lat="44.73563" lon="3.73626">
        <ele>1031.1326904297</ele>
        <time>2020-11-02T09:03:26.181Z</time>
      </trkpt>
      <trkpt lat="44.73579" lon="3.73613">
        <ele>1027.8933105469</ele>
        <time>2020-11-02T09:03:27.436Z</time>
      </trkpt>
      <trkpt lat="44.736" lon="3.73597">
        <ele>1027.0007324219</ele>
        <time>2020-11-02T09:03:28.696Z</time>
      </trkpt>
      <trkpt lat="44.73623" lon="3.73586">
        <ele>1025.5827636719</ele>
        <time>2020-11-02T09:03:29.961Z</time>
      </trkpt>
      <trkpt lat="44.73637" lon="3.73583">
        <ele>1026.8184814453</ele>
        <time>2020-11-02T09:03:31.229Z</time>
      </trkpt>
      <trkpt lat="44.73673" lon="3.73569">
        <ele>1029.1989746094</ele>
        <time>2020-11-02T09:03:32.504Z</time>
      </trkpt>
      <trkpt lat="44.73694" lon="3.73559">
        <ele>1026.3913574219</ele>
        <time>2020-11-02T09:03:33.784Z</time>
      </trkpt>
      <trkpt lat="44.73708" lon="3.7356">
        <ele>1026.0445556641</ele>
        <time>2020-11-02T09:03:35.066Z</time>
      </trkpt>
      <trkpt lat="44.7374" lon="3.73573">
        <ele>1028.0002441406</ele>
        <time>2020-11-02T09:03:36.355Z</time>
      </trkpt>
      <trkpt lat="44.7376" lon="3.73582">
        <ele>1029.3800048828</ele>
        <time>2020-11-02T09:03:37.648Z</time>
      </trkpt>
      <trkpt lat="44.73787" lon="3.73586">
        <ele>1030.1987304688</ele>
        <time>2020-11-02T09:03:38.947Z</time>
      </trkpt>
      <trkpt lat="44.73803" lon="3.73585">
        <ele>1029.1057128906</ele>
        <time>2020-11-02T09:03:40.249Z</time>
      </trkpt>
      <trkpt lat="44.73821" lon="3.7358">
        <ele>1027.2459716797</ele>
        <time>2020-11-02T09:03:41.555Z</time>
      </trkpt>
      <trkpt lat="44.73868" lon="3.73561">
        <ele>1022.9125366211</ele>
        <time>2020-11-02T09:03:42.870Z</time>
      </trkpt>
      <trkpt lat="44.73926" lon="3.7355">
        <ele>1025.1831054688</ele>
        <time>2020-11-02T09:03:44.197Z</time>
      </trkpt>
      <trkpt lat="44.73979" lon="3.73536">
        <ele>1020.4522705078</ele>
        <time>2020-11-02T09:03:45.535Z</time>
      </trkpt>
      <trkpt lat="44.74044" lon="3.73516">
        <ele>1018.8479614258</ele>
        <time>2020-11-02T09:03:46.886Z</time>
      </trkpt>
      <trkpt lat="44.74075" lon="3.73504">
        <ele>1019.2679443359</ele>
        <time>2020-11-02T09:03:48.244Z</time>
      </trkpt>
      <trkpt lat="44.74097" lon="3.73487">
        <ele>1018.6666259766</ele>
        <time>2020-11-02T09:03:49.607Z</time>
      </trkpt>
      <trkpt lat="44.74103" lon="3.7348">
        <ele>1018.3426513672</ele>
        <time>2020-11-02T09:03:50.971Z</time>
      </trkpt>
      <trkpt lat="44.74117" lon="3.73452">
        <ele>1016.3270263672</ele>
        <time>2020-11-02T09:03:52.340Z</time>
      </trkpt>
      <trkpt lat="44.74122" lon="3.73431">
        <ele>1015.3856811523</ele>
        <time>2020-11-02T09:03:53.712Z</time>
      </trkpt>
      <trkpt lat="44.74121" lon="3.73403">
        <ele>1015.4816894531</ele>
        <time>2020-11-02T09:03:55.088Z</time>
      </trkpt>
      <trkpt lat="44.7411" lon="3.73353">
        <ele>1015.5610961914</ele>
        <time>2020-11-02T09:03:56.472Z</time>
      </trkpt>
      <trkpt lat="44.74097" lon="3.73302">
        <ele>1015.7539672852</ele>
        <time>2020-11-02T09:03:57.863Z</time>
      </trkpt>
      <trkpt lat="44.74082" lon="3.73258">
        <ele>1014.8965454102</ele>
        <time>2020-11-02T09:03:59.261Z</time>
      </trkpt>
      <trkpt lat="44.74076" lon="3.73229">
        <ele>1012.4969482422</ele>
        <time>2020-11-02T09:04:00.664Z</time>
      </trkpt>
      <trkpt lat="44.74065" lon="3.73153">
        <ele>1010.6330566406</ele>
        <time>2020-11-02T09:04:02.078Z</time>
      </trkpt>
      <trkpt lat="44.74056" lon="3.73115">
        <ele>1008.2935791016</ele>
        <time>2020-11-02T09:04:03.497Z</time>
      </trkpt>
      <trkpt lat="44.7405" lon="3.73082">
        <ele>1006.4681396484</ele>
        <time>2020-11-02T09:04:04.921Z</time>
      </trkpt>
      <trkpt lat="44.74049" lon="3.73069">
        <ele>1006.0961914062</ele>
        <time>2020-11-02T09:04:06.347Z</time>
      </trkpt>
      <trkpt lat="44.74055" lon="3.73045">
        <ele>1007.1040039062</ele>
        <time>2020-11-02T09:04:07.777Z</time>
      </trkpt>
      <trkpt lat="44.74059" lon="3.73035">
        <ele>1006.8188476562</ele>
        <time>2020-11-02T09:04:09.208Z</time>
      </trkpt>
      <trkpt lat="44.74067" lon="3.73027">
        <ele>1006.1469726562</ele>
        <time>2020-11-02T09:04:10.641Z</time>
      </trkpt>
      <trkpt lat="44.74076" lon="3.73022">
        <ele>1006.0150146484</ele>
        <time>2020-11-02T09:04:12.076Z</time>
      </trkpt>
      <trkpt lat="44.74099" lon="3.73022">
        <ele>1007.670715332</ele>
        <time>2020-11-02T09:04:13.516Z</time>
      </trkpt>
      <trkpt lat="44.74146" lon="3.73039">
        <ele>1011.6400146484</ele>
        <time>2020-11-02T09:04:14.966Z</time>
      </trkpt>
      <trkpt lat="44.74251" lon="3.73082">
        <ele>1012.735534668</ele>
        <time>2020-11-02T09:04:16.437Z</time>
      </trkpt>
      <trkpt lat="44.74268" lon="3.73088">
        <ele>1012.0516967773</ele>
        <time>2020-11-02T09:04:17.912Z</time>
      </trkpt>
      <trkpt lat="44.74282" lon="3.7309">
        <ele>1011.3295288086</ele>
        <time>2020-11-02T09:04:19.390Z</time>
      </trkpt>
      <trkpt lat="44.74299" lon="3.73089">
        <ele>1011.5576171875</ele>
        <time>2020-11-02T09:04:20.871Z</time>
      </trkpt>
      <trkpt lat="44.74318" lon="3.73082">
        <ele>1011.6895751953</ele>
        <time>2020-11-02T09:04:22.356Z</time>
      </trkpt>
      <trkpt lat="44.74359" lon="3.73065">
        <ele>1010.7259521484</ele>
        <time>2020-11-02T09:04:23.850Z</time>
      </trkpt>
      <trkpt lat="44.74409" lon="3.73038">
        <ele>1010.2542724609</ele>
        <time>2020-11-02T09:04:25.354Z</time>
      </trkpt>
      <trkpt lat="44.74437" lon="3.73021">
        <ele>1005.5510864258</ele>
        <time>2020-11-02T09:04:26.864Z</time>
      </trkpt>
      <trkpt lat="44.74459" lon="3.73009">
        <ele>1006.3126220703</ele>
        <time>2020-11-02T09:04:28.379Z</time>
      </trkpt>
      <trkpt lat="44.74505" lon="3.72987">
        <ele>1011.086730957</ele>
        <time>2020-11-02T09:04:29.904Z</time>
      </trkpt>
      <trkpt lat="44.74534" lon="3.72972">
        <ele>1005.2317504883</ele>
        <time>2020-11-02T09:04:31.435Z</time>
      </trkpt>
      <trkpt lat="44.74545" lon="3.72963">
        <ele>1003.8887329102</ele>
        <time>2020-11-02T09:04:32.969Z</time>
      </trkpt>
      <trkpt lat="44.7456" lon="3.72942">
        <ele>1002.1440429688</ele>
        <time>2020-11-02T09:04:34.507Z</time>
      </trkpt>
      <trkpt lat="44.74575" lon="3.72917">
        <ele>1004.6938476562</ele>
        <time>2020-11-02T09:04:36.050Z</time>
      </trkpt>
      <trkpt lat="44.74633" lon="3.72797">
        <ele>1001.9108886719</ele>
        <time>2020-11-02T09:04:37.613Z</time>
      </trkpt>
      <trkpt lat="44.74649" lon="3.7277">
        <ele>1000.3693847656</ele>
        <time>2020-11-02T09:04:39.181Z</time>
      </trkpt>
      <trkpt lat="44.74664" lon="3.72761">
        <ele>1001.6292114258</ele>
        <time>2020-11-02T09:04:40.752Z</time>
      </trkpt>
      <trkpt lat="44.74676" lon="3.72759">
        <ele>1002.6370239258</ele>
        <time>2020-11-02T09:04:42.326Z</time>
      </trkpt>
      <trkpt lat="44.74691" lon="3.72761">
        <ele>1003.8967895508</ele>
        <time>2020-11-02T09:04:43.903Z</time>
      </trkpt>
      <trkpt lat="44.74733" lon="3.72786">
        <ele>1006.1705932617</ele>
        <time>2020-11-02T09:04:45.489Z</time>
      </trkpt>
      <trkpt lat="44.7481" lon="3.72831">
        <ele>1008.9230957031</ele>
        <time>2020-11-02T09:04:47.092Z</time>
      </trkpt>
      <trkpt lat="44.74846" lon="3.72852">
        <ele>1008.6711425781</ele>
        <time>2020-11-02T09:04:48.703Z</time>
      </trkpt>
      <trkpt lat="44.7486" lon="3.72856">
        <ele>1007.5283813477</ele>
        <time>2020-11-02T09:04:50.316Z</time>
      </trkpt>
      <trkpt lat="44.74882" lon="3.72857">
        <ele>1004.0996704102</ele>
        <time>2020-11-02T09:04:51.934Z</time>
      </trkpt>
      <trkpt lat="44.749" lon="3.72864">
        <ele>1003.139831543</ele>
        <time>2020-11-02T09:04:53.556Z</time>
      </trkpt>
      <trkpt lat="44.74923" lon="3.72886">
        <ele>1005.3594360352</ele>
        <time>2020-11-02T09:04:55.183Z</time>
      </trkpt>
      <trkpt lat="44.74948" lon="3.72902">
        <ele>1005.6834106445</ele>
        <time>2020-11-02T09:04:56.816Z</time>
      </trkpt>
      <trkpt lat="44.74964" lon="3.7291">
        <ele>1005.4172973633</ele>
        <time>2020-11-02T09:04:58.452Z</time>
      </trkpt>
      <trkpt lat="44.74989" lon="3.72918">
        <ele>1003.9295654297</ele>
        <time>2020-11-02T09:05:00.093Z</time>
      </trkpt>
      <trkpt lat="44.75018" lon="3.72921">
        <ele>1000.5461425781</ele>
        <time>2020-11-02T09:05:01.740Z</time>
      </trkpt>
      <trkpt lat="44.7505" lon="3.72918">
        <ele>998.25280761719</ele>
        <time>2020-11-02T09:05:03.393Z</time>
      </trkpt>
      <trkpt lat="44.75077" lon="3.72912">
        <ele>996.52514648438</ele>
        <time>2020-11-02T09:05:05.052Z</time>
      </trkpt>
      <trkpt lat="44.75118" lon="3.72898">
        <ele>995.19848632812</ele>
        <time>2020-11-02T09:05:06.719Z</time>
      </trkpt>
      <trkpt lat="44.75139" lon="3.72881">
        <ele>995.65478515625</ele>
        <time>2020-11-02T09:05:08.391Z</time>
      </trkpt>
      <trkpt lat="44.75167" lon="3.72848">
        <ele>992.42718505859</ele>
        <time>2020-11-02T09:05:10.070Z</time>
      </trkpt>
      <trkpt lat="44.7522" lon="3.72791">
        <ele>988.67907714844</ele>
        <time>2020-11-02T09:05:11.763Z</time>
      </trkpt>
      <trkpt lat="44.75234" lon="3.72766">
        <ele>987.26940917969</ele>
        <time>2020-11-02T09:05:13.460Z</time>
      </trkpt>
      <trkpt lat="44.75244" lon="3.72745">
        <ele>988.55139160156</ele>
        <time>2020-11-02T09:05:15.161Z</time>
      </trkpt>
      <trkpt lat="44.75243" lon="3.72744">
        <ele>988.50518798828</ele>
        <time>2020-11-02T09:05:16.862Z</time>
      </trkpt>
      <trkpt lat="44.75275" lon="3.72672">
        <ele>987.51708984375</ele>
        <time>2020-11-02T09:05:18.575Z</time>
      </trkpt>
      <trkpt lat="44.75282" lon="3.72652">
        <ele>987.44512939453</ele>
        <time>2020-11-02T09:05:20.291Z</time>
      </trkpt>
      <trkpt lat="44.75283" lon="3.72636">
        <ele>987.27716064453</ele>
        <time>2020-11-02T09:05:22.010Z</time>
      </trkpt>
      <trkpt lat="44.75283" lon="3.72626">
        <ele>987.15716552734</ele>
        <time>2020-11-02T09:05:23.730Z</time>
      </trkpt>
      <trkpt lat="44.75292" lon="3.72625">
        <ele>988.26556396484</ele>
        <time>2020-11-02T09:05:25.452Z</time>
      </trkpt>
      <trkpt lat="44.75294" lon="3.7261">
        <ele>988.5341796875</ele>
        <time>2020-11-02T09:05:27.176Z</time>
      </trkpt>
      <trkpt lat="44.75298" lon="3.72607">
        <ele>989.15808105469</ele>
        <time>2020-11-02T09:05:28.901Z</time>
      </trkpt>
      <trkpt lat="44.75308" lon="3.72604">
        <ele>990.93377685547</ele>
        <time>2020-11-02T09:05:30.628Z</time>
      </trkpt>
      <trkpt lat="44.75311" lon="3.72607">
        <ele>991.65368652344</ele>
        <time>2020-11-02T09:05:32.356Z</time>
      </trkpt>
      <trkpt lat="44.75312" lon="3.72616">
        <ele>992.27758789062</ele>
        <time>2020-11-02T09:05:34.085Z</time>
      </trkpt>
      <trkpt lat="44.75313" lon="3.72633">
        <ele>993.14874267578</ele>
        <time>2020-11-02T09:05:35.816Z</time>
      </trkpt>
      <trkpt lat="44.75336" lon="3.7263">
        <ele>997.55670166016</ele>
        <time>2020-11-02T09:05:37.552Z</time>
      </trkpt>
      <trkpt lat="44.75336" lon="3.72591">
        <ele>995.99139404297</ele>
        <time>2020-11-02T09:05:39.294Z</time>
      </trkpt>
      <trkpt lat="44.75331" lon="3.72584">
        <ele>994.86358642578</ele>
        <time>2020-11-02T09:05:41.037Z</time>
      </trkpt>
    </trkseg>
  </trk>
</gpx>